Time;durP1;ratioP1;P1;durP2;ratioP2;P2;SDS_P1;SDS_P2;PMS_P1;PMS_P2;Temp;Humidity;BMP_temperature;BMP_pressure;BME280_temperature;BME280_humidity;BME280_pressure;Samples;Min_cycle;Max_cycle;Signal;HPM_P1;HPM_P2
2022/04/12 00:01:04;;;;;;;9.70;7.87;;;10.40;78.00;;;;;;6133704;23;20798;-88
2022/04/12 00:03:31;;;;;;;9.87;7.97;;;10.30;78.20;;;;;;6127917;23;20478;-88
2022/04/12 00:05:58;;;;;;;11.63;8.30;;;10.30;78.50;;;;;;6127434;23;20454;-89
2022/04/12 00:08:31;;;;;;;10.40;8.50;;;10.30;78.50;;;;;;6127481;23;20423;-88
2022/04/12 00:10:58;;;;;;;11.23;8.53;;;10.20;78.60;;;;;;6127340;23;20408;-88
2022/04/12 00:13:25;;;;;;;11.43;8.63;;;10.20;78.80;;;;;;6126860;23;20425;-88
2022/04/12 00:15:52;;;;;;;10.60;9.60;;;10.10;80.00;;;;;;6146139;23;20451;-88
2022/04/12 00:21:07;;;;;;;9.10;8.13;;;10.00;80.50;;;;;;6127868;23;20376;-88
2022/04/12 00:23:35;;;;;;;8.80;7.90;;;10.00;81.00;;;;;;6126898;23;20412;-89
2022/04/12 00:26:02;;;;;;;10.53;7.73;;;9.90;82.30;;;;;;6144372;23;20420;-89
2022/04/12 00:28:29;;;;;;;11.20;8.70;;;9.90;82.90;;;;;;6130150;23;20776;-89
2022/04/12 00:30:55;;;;;;;11.83;8.00;;;10.00;82.20;;;;;;6132905;23;20740;-88
2022/04/12 00:33:22;;;;;;;9.90;8.47;;;9.90;83.60;;;;;;6127482;23;20785;-88
2022/04/12 00:35:49;;;;;;;12.07;8.60;;;9.80;84.10;;;;;;6126233;23;20405;-88
2022/04/12 00:38:22;;;;;;;12.20;9.10;;;9.70;84.40;;;;;;6126888;23;20434;-88
2022/04/12 00:40:50;;;;;;;10.83;8.43;;;9.50;84.60;;;;;;6126483;23;20416;-88
2022/04/12 00:43:18;;;;;;;10.87;8.53;;;9.60;85.50;;;;;;6126581;23;20412;-88
2022/04/12 00:45:45;;;;;;;10.00;8.43;;;9.60;85.80;;;;;;6126264;23;20473;-88
2022/04/12 00:48:12;;;;;;;10.80;8.70;;;9.70;85.80;;;;;;6126795;23;20431;-88
2022/04/12 00:50:39;;;;;;;8.90;8.00;;;9.50;86.30;;;;;;6127081;23;20776;-88
2022/04/12 00:53:08;;;;;;;11.60;8.43;;;9.40;87.00;;;;;;6126662;23;20414;-89
2022/04/12 00:55:35;;;;;;;9.73;8.80;;;9.50;87.30;;;;;;6126701;23;20400;-88
2022/04/12 00:58:06;;;;;;;8.37;7.57;;;9.40;87.50;;;;;;6151513;23;20442;-89
2022/04/12 01:00:33;;;;;;;9.00;8.10;;;9.40;87.60;;;;;;6140965;23;20462;-88
2022/04/12 01:03:00;;;;;;;8.33;7.40;;;9.50;89.00;;;;;;6126752;23;20404;-88
2022/04/12 01:05:27;;;;;;;10.90;7.90;;;9.40;89.30;;;;;;6126262;23;20439;-88
2022/04/12 01:07:56;;;;;;;8.93;8.03;;;9.30;89.70;;;;;;6127939;23;20467;-88
2022/04/12 01:10:23;;;;;;;8.47;7.50;;;9.30;89.80;;;;;;6130515;23;20415;-89
2022/04/12 01:12:52;;;;;;;9.67;8.43;;;9.30;89.80;;;;;;6125807;23;20403;-88
2022/04/12 01:15:22;;;;;;;7.80;6.90;;;9.20;90.00;;;;;;6125857;23;20408;-88
2022/04/12 01:17:50;;;;;;;9.50;8.50;;;9.20;90.10;;;;;;6136814;23;20530;-88
2022/04/12 01:20:19;;;;;;;10.40;8.43;;;9.10;90.30;;;;;;6153686;23;20400;-86
2022/04/12 01:22:57;;;;;;;10.50;9.40;;;9.10;90.60;;;;;;6153384;23;20396;-87
2022/04/12 01:25:25;;;;;;;10.40;8.07;;;9.10;90.80;;;;;;6148009;23;20502;-88
2022/04/12 01:27:53;;;;;;;10.63;9.53;;;9.10;90.90;;;;;;6153244;23;20426;-87
2022/04/12 01:30:20;;;;;;;8.83;7.90;;;8.90;91.10;;;;;;6153414;23;20468;-87
2022/04/12 01:32:47;;;;;;;10.53;7.90;;;8.80;91.60;;;;;;6153911;23;20392;-88
2022/04/12 01:35:14;;;;;;;11.10;8.50;;;8.90;91.80;;;;;;6152923;23;20402;-87
2022/04/12 01:37:40;;;;;;;11.40;8.63;;;8.90;91.70;;;;;;6152092;23;20436;-88
2022/04/12 01:40:09;;;;;;;12.90;9.43;;;8.90;91.80;;;;;;6147332;23;20408;-88
2022/04/12 01:42:38;;;;;;;9.33;8.00;;;8.90;91.80;;;;;;6146793;23;20412;-88
2022/04/12 01:45:05;;;;;;;11.70;8.93;;;8.90;92.10;;;;;;6131010;23;20435;-88
2022/04/12 01:47:32;;;;;;;11.73;9.47;;;8.90;91.80;;;;;;6129699;23;20430;-88
2022/04/12 01:49:59;;;;;;;10.17;8.90;;;8.80;91.70;;;;;;6130357;23;20434;-88
2022/04/12 01:52:25;;;;;;;10.50;9.40;;;8.80;91.80;;;;;;6128378;23;20462;-88
2022/04/12 01:54:52;;;;;;;10.80;8.83;;;8.70;91.70;;;;;;6128742;23;20415;-88
2022/04/12 01:57:19;;;;;;;11.17;9.27;;;8.70;92.10;;;;;;6127861;23;20424;-88
2022/04/12 01:59:47;;;;;;;12.83;8.67;;;8.70;92.20;;;;;;6131449;23;20402;-88
2022/04/12 02:02:14;;;;;;;10.40;9.00;;;8.70;92.40;;;;;;6128557;23;20450;-88
2022/04/12 02:04:40;;;;;;;12.13;10.40;;;8.60;92.50;;;;;;6130292;23;20782;-88
2022/04/12 02:07:08;;;;;;;10.13;8.60;;;8.60;92.50;;;;;;6128714;23;20407;-87
2022/04/12 02:09:34;;;;;;;9.40;8.30;;;8.60;92.60;;;;;;6127893;23;20410;-87
2022/04/12 02:12:01;;;;;;;10.00;9.00;;;8.60;93.00;;;;;;6151435;23;20431;-87
2022/04/12 02:14:33;;;;;;;8.73;7.87;;;8.50;93.10;;;;;;6155391;23;20470;-86
2022/04/12 02:17:01;;;;;;;13.03;9.03;;;8.50;93.50;;;;;;6150114;23;20384;-88
2022/04/12 02:19:27;;;;;;;10.97;9.37;;;8.50;93.20;;;;;;6138903;23;20415;-88
2022/04/12 02:21:54;;;;;;;12.30;8.63;;;8.40;93.10;;;;;;6131233;23;20883;-89
2022/04/12 02:24:21;;;;;;;10.43;9.40;;;8.30;93.40;;;;;;6129308;23;20415;-89
2022/04/12 02:26:47;;;;;;;16.10;10.00;;;8.30;93.70;;;;;;6129433;23;20498;-89
2022/04/12 02:29:14;;;;;;;11.80;8.00;;;8.20;94.00;;;;;;6132280;23;20432;-89
2022/04/12 02:31:41;;;;;;;11.40;8.70;;;8.20;94.30;;;;;;6154174;23;20414;-88
2022/04/12 02:34:10;;;;;;;9.87;8.50;;;8.20;94.60;;;;;;6156101;23;20407;-88
2022/04/12 02:36:37;;;;;;;12.97;10.30;;;8.30;94.60;;;;;;6155491;23;20406;-88
2022/04/12 02:39:05;;;;;;;11.17;9.90;;;8.40;94.30;;;;;;6155280;23;20422;-86
2022/04/12 02:41:32;;;;;;;10.00;9.00;;;8.30;94.00;;;;;;6146658;23;20427;-88
2022/04/12 02:43:58;;;;;;;14.20;11.00;;;8.30;94.10;;;;;;6144243;23;20400;-88
2022/04/12 02:46:25;;;;;;;11.00;8.50;;;8.30;94.00;;;;;;6155809;23;20439;-86
2022/04/12 02:48:52;;;;;;;13.40;8.67;;;8.30;94.00;;;;;;6155605;23;20411;-87
2022/04/12 02:51:20;;;;;;;8.50;7.60;;;8.30;93.80;;;;;;6155491;23;20447;-86
2022/04/12 02:53:47;;;;;;;9.93;9.00;;;8.20;94.00;;;;;;6152511;23;20424;-87
2022/04/12 02:56:14;;;;;;;9.97;8.60;;;8.10;94.20;;;;;;6137557;23;20408;-88
2022/04/12 02:58:41;;;;;;;12.13;9.10;;;8.00;94.90;;;;;;6136894;23;20435;-88
2022/04/12 03:01:08;;;;;;;11.20;10.00;;;7.90;94.70;;;;;;6137275;23;20456;-87
2022/04/12 03:03:34;;;;;;;11.10;9.93;;;7.90;95.00;;;;;;6130296;23;20399;-88
2022/04/12 03:06:01;;;;;;;13.73;9.80;;;7.90;95.20;;;;;;6131526;23;20470;-89
2022/04/12 03:08:29;;;;;;;10.80;9.67;;;7.90;95.40;;;;;;6132482;23;20420;-89
2022/04/12 03:10:56;;;;;;;16.80;9.53;;;7.90;95.60;;;;;;6148756;23;20415;-88
2022/04/12 03:13:24;;;;;;;11.50;10.20;;;7.90;95.50;;;;;;6141319;23;20408;-89
2022/04/12 03:15:50;;;;;;;10.30;9.17;;;7.90;95.60;;;;;;6147308;23;20382;-88
2022/04/12 03:18:17;;;;;;;11.20;10.00;;;7.90;95.60;;;;;;6154892;23;20447;-88
2022/04/12 03:20:44;;;;;;;9.50;8.50;;;7.90;95.60;;;;;;6142353;23;20414;-89
2022/04/12 03:23:11;;;;;;;11.50;9.10;;;8.00;95.60;;;;;;6153859;23;20408;-88
2022/04/12 03:25:40;;;;;;;12.77;10.40;;;8.00;95.50;;;;;;6144623;23;20432;-88
2022/04/12 03:28:07;;;;;;;12.03;10.80;;;7.90;95.70;;;;;;6134924;23;20435;-88
2022/04/12 03:30:34;;;;;;;15.00;10.40;;;7.90;95.90;;;;;;6132718;23;20414;-88
2022/04/12 03:33:01;;;;;;;11.63;10.40;;;7.90;96.10;;;;;;6131942;23;20407;-88
2022/04/12 03:35:28;;;;;;;11.90;10.10;;;8.00;96.30;;;;;;6131862;23;20400;-87
2022/04/12 03:37:59;;;;;;;14.60;10.20;;;8.00;96.30;;;;;;6130384;23;20506;-87
2022/04/12 03:40:27;;;;;;;13.80;9.80;;;8.00;96.10;;;;;;6129618;23;20427;-88
2022/04/12 03:42:55;;;;;;;11.23;9.73;;;8.10;96.10;;;;;;6129852;23;20751;-87
2022/04/12 03:45:21;;;;;;;12.97;11.77;;;8.10;95.90;;;;;;6127627;23;20459;-87
2022/04/12 03:47:48;;;;;;;13.53;12.10;;;8.10;95.80;;;;;;6128584;23;20432;-88
2022/04/12 03:50:15;;;;;;;13.37;11.87;;;8.10;95.90;;;;;;6129807;23;20478;-88
2022/04/12 03:52:42;;;;;;;17.37;11.90;;;8.10;95.90;;;;;;6128237;23;20391;-88
2022/04/12 03:55:11;;;;;;;12.20;10.77;;;8.20;95.70;;;;;;6129557;23;20410;-88
2022/04/12 03:57:38;;;;;;;16.17;11.47;;;8.20;95.70;;;;;;6134958;23;20435;-80
2022/04/12 04:00:09;;;;;;;14.70;11.50;;;8.10;95.70;;;;;;6161351;23;20423;-83
2022/04/12 04:02:35;;;;;;;14.60;11.83;;;8.20;95.80;;;;;;6158792;23;20383;-82
2022/04/12 04:05:02;;;;;;;14.07;11.50;;;8.10;95.80;;;;;;6159974;23;20495;-83
2022/04/12 04:07:29;;;;;;;15.83;11.30;;;8.10;95.90;;;;;;6156515;23;20406;-81
2022/04/12 04:09:56;;;;;;;13.43;12.03;;;8.10;95.80;;;;;;6128549;23;20412;-83
2022/04/12 04:12:22;;;;;;;15.87;12.73;;;8.10;95.90;;;;;;6127481;23;20412;-82
2022/04/12 04:14:49;;;;;;;18.70;13.00;;;8.10;95.90;;;;;;6129393;23;20419;-81
2022/04/12 04:17:17;;;;;;;10.87;9.83;;;8.10;96.00;;;;;;6137812;23;20407;-80
2022/04/12 04:19:44;;;;;;;13.37;11.90;;;8.10;96.00;;;;;;6129640;23;20408;-82
2022/04/12 04:22:10;;;;;;;13.80;11.00;;;8.00;96.00;;;;;;6127869;23;20432;-83
2022/04/12 04:24:37;;;;;;;14.80;10.70;;;8.00;96.00;;;;;;6128791;23;20412;-83
2022/04/12 04:27:05;;;;;;;16.73;12.63;;;8.00;96.00;;;;;;6126941;23;20447;-82
2022/04/12 04:29:33;;;;;;;14.43;11.70;;;8.10;96.10;;;;;;6127252;23;20448;-82
2022/04/12 04:32:00;;;;;;;13.53;12.10;;;8.10;96.00;;;;;;6127018;23;20779;-82
2022/04/12 04:34:28;;;;;;;12.73;10.60;;;8.10;95.90;;;;;;6127985;23;20392;-80
2022/04/12 04:36:54;;;;;;;17.07;12.23;;;8.10;95.80;;;;;;6136910;23;20447;-82
2022/04/12 04:39:21;;;;;;;13.43;10.80;;;8.00;95.80;;;;;;6129154;23;20443;-82
2022/04/12 04:41:48;;;;;;;12.70;10.83;;;8.00;95.90;;;;;;6127220;23;20415;-83
2022/04/12 04:44:14;;;;;;;15.10;11.50;;;8.00;95.80;;;;;;6135176;23;20469;-80
2022/04/12 04:46:41;;;;;;;12.53;11.30;;;8.00;96.00;;;;;;6137153;23;20535;-82
2022/04/12 04:49:08;;;;;;;13.30;10.33;;;8.00;95.90;;;;;;6129249;23;20478;-82
2022/04/12 04:51:41;;;;;;;12.90;10.23;;;8.00;96.00;;;;;;6126680;23;20415;-82
2022/04/12 04:54:08;;;;;;;11.57;10.20;;;8.00;96.00;;;;;;6127603;23;20725;-83
2022/04/12 04:56:34;;;;;;;13.80;10.87;;;8.00;96.10;;;;;;6132501;23;20471;-81
2022/04/12 04:59:01;;;;;;;13.50;10.40;;;8.00;96.10;;;;;;6134961;23;20444;-82
2022/04/12 05:01:28;;;;;;;16.83;11.57;;;8.00;96.20;;;;;;6135059;23;20403;-84
2022/04/12 05:03:54;;;;;;;18.90;10.90;;;8.00;96.50;;;;;;6129071;23;20941;-81
2022/04/12 05:06:21;;;;;;;17.10;10.53;;;8.00;96.70;;;;;;6134473;23;20448;-80
2022/04/12 05:08:49;;;;;;;16.10;11.20;;;7.90;96.70;;;;;;6133228;23;20467;-82
2022/04/12 05:11:16;;;;;;;21.60;11.10;;;8.00;96.90;;;;;;6125690;23;20411;-79
2022/04/12 05:13:45;;;;;;;16.67;10.57;;;7.90;97.00;;;;;;6124723;23;20907;-78
2022/04/12 05:16:12;;;;;;;15.97;12.23;;;7.90;97.40;;;;;;6124918;23;20404;-78
2022/04/12 05:18:39;;;;;;;13.90;9.00;;;7.90;97.50;;;;;;6126858;23;20739;-80
2022/04/12 05:21:05;;;;;;;15.87;10.40;;;8.00;97.00;;;;;;6131672;23;20435;-78
2022/04/12 05:23:32;;;;;;;15.23;10.20;;;8.10;96.70;;;;;;6132457;23;20411;-80
2022/04/12 05:26:00;;;;;;;12.77;10.67;;;8.10;96.50;;;;;;6145238;23;20469;-77
2022/04/12 05:28:27;;;;;;;12.87;10.80;;;8.20;96.30;;;;;;6143637;23;20435;-80
2022/04/12 05:30:56;;;;;;;16.67;11.87;;;8.20;96.10;;;;;;6146231;23;20432;-78
2022/04/12 05:33:32;;;;;;;13.77;11.20;;;8.30;95.90;;;;;;6133170;23;20577;-80
2022/04/12 05:35:58;;;;;;;13.80;11.17;;;8.40;95.60;;;;;;6129488;23;20438;-77
2022/04/12 05:38:25;;;;;;;15.20;9.80;;;8.40;95.50;;;;;;6128342;23;20450;-79
2022/04/12 05:40:52;;;;;;;20.27;12.03;;;8.50;95.30;;;;;;6127740;23;20467;-78
2022/04/12 05:43:20;;;;;;;13.70;10.93;;;8.50;95.00;;;;;;6136235;23;20416;-83
2022/04/12 05:45:46;;;;;;;14.00;10.90;;;8.50;94.90;;;;;;6132469;23;20499;-80
2022/04/12 05:48:13;;;;;;;13.63;10.30;;;8.50;94.90;;;;;;6133641;23;20434;-82
2022/04/12 05:50:40;;;;;;;12.83;9.83;;;8.60;94.90;;;;;;6131768;23;20964;-80
2022/04/12 05:53:07;;;;;;;13.43;10.43;;;8.60;94.80;;;;;;6127792;23;20921;-80
2022/04/12 05:55:34;;;;;;;12.37;10.40;;;8.70;94.50;;;;;;6128762;23;20470;-80
2022/04/12 05:58:03;;;;;;;13.80;11.73;;;8.70;94.50;;;;;;6128495;23;20826;-80
2022/04/12 06:00:32;;;;;;;13.37;11.17;;;8.70;94.50;;;;;;6128067;23;20403;-80
2022/04/12 06:03:00;;;;;;;11.50;10.27;;;8.80;94.50;;;;;;6129110;23;20430;-78
2022/04/12 06:05:30;;;;;;;12.30;10.37;;;8.80;94.40;;;;;;6130150;23;20423;-80
2022/04/12 06:07:57;;;;;;;15.07;10.70;;;8.90;94.30;;;;;;6130390;23;20429;-80
2022/04/12 06:10:24;;;;;;;12.90;10.50;;;9.00;94.10;;;;;;6132809;23;20380;-79
2022/04/12 06:12:52;;;;;;;12.93;10.30;;;9.10;94.20;;;;;;6130255;23;20404;-80
2022/04/12 06:15:19;;;;;;;13.43;11.27;;;9.30;93.90;;;;;;6129951;23;20404;-81
2022/04/12 06:17:47;;;;;;;11.03;9.93;;;9.50;93.50;;;;;;6128999;23;20462;-81
2022/04/12 06:20:16;;;;;;;12.17;11.03;;;9.90;93.00;;;;;;6128192;23;20404;-81
2022/04/12 06:22:43;;;;;;;15.93;12.20;;;10.20;91.60;;;;;;6128084;23;20760;-81
2022/04/12 06:25:12;;;;;;;15.53;11.47;;;10.60;91.20;;;;;;6127219;23;20404;-80
2022/04/12 06:27:41;;;;;;;11.57;9.03;;;10.90;90.60;;;;;;6127611;23;20834;-81
2022/04/12 06:30:09;;;;;;;12.17;10.10;;;11.20;89.50;;;;;;6127375;23;20520;-81
2022/04/12 06:32:37;;;;;;;15.60;11.20;;;11.40;86.80;;;;;;6126571;23;20787;-80
2022/04/12 06:35:06;;;;;;;11.30;10.10;;;11.50;85.80;;;;;;6128796;23;20408;-81
2022/04/12 06:37:34;;;;;;;12.30;11.00;;;11.40;85.00;;;;;;6129033;23;20460;-82
2022/04/12 06:40:01;;;;;;;12.53;9.47;;;11.40;85.70;;;;;;6127005;23;20415;-81
2022/04/12 06:42:27;;;;;;;11.47;10.30;;;11.50;84.30;;;;;;6128189;23;20415;-81
2022/04/12 06:44:54;;;;;;;10.27;8.83;;;11.90;84.40;;;;;;6137572;23;20419;-79
2022/04/12 06:47:21;;;;;;;12.50;10.23;;;12.40;82.60;;;;;;6133076;23;20486;-81
2022/04/12 06:49:49;;;;;;;14.03;9.33;;;12.80;80.00;;;;;;6132763;23;20415;-79
2022/04/12 06:52:19;;;;;;;11.37;9.17;;;13.00;79.00;;;;;;6138879;23;20460;-81
2022/04/12 06:54:45;;;;;;;10.73;9.43;;;13.70;78.00;;;;;;6128190;23;20405;-82
2022/04/12 06:57:12;;;;;;;9.40;8.50;;;14.70;74.80;;;;;;6131949;23;21090;-81
2022/04/12 06:59:40;;;;;;;12.47;9.10;;;15.20;71.10;;;;;;6135564;23;20805;-81
2022/04/12 07:02:07;;;;;;;10.03;9.03;;;15.90;70.20;;;;;;6129680;23;20722;-80
2022/04/12 07:04:35;;;;;;;10.27;9.27;;;16.20;66.30;;;;;;6131279;23;20769;-81
2022/04/12 07:07:02;;;;;;;10.30;8.90;;;16.80;65.60;;;;;;6131168;23;20426;-80
2022/04/12 07:09:31;;;;;;;10.17;9.27;;;16.80;63.80;;;;;;6129137;23;20420;-79
2022/04/12 07:11:59;;;;;;;10.80;9.10;;;16.60;62.70;;;;;;6128194;23;20404;-82
2022/04/12 07:14:27;;;;;;;10.70;9.70;;;16.40;63.20;;;;;;6128950;23;20525;-80
2022/04/12 07:16:54;;;;;;;13.13;10.30;;;16.60;62.60;;;;;;6129593;23;20523;-82
2022/04/12 07:19:21;;;;;;;12.03;9.70;;;16.40;62.60;;;;;;6144904;23;20455;-80
2022/04/12 07:21:48;;;;;;;12.10;9.93;;;16.50;62.10;;;;;;6130147;23;20895;-82
2022/04/12 07:24:15;;;;;;;12.80;9.90;;;16.90;62.10;;;;;;6129397;23;20482;-80
2022/04/12 07:26:43;;;;;;;12.00;10.00;;;17.20;60.10;;;;;;6131473;23;20786;-82
2022/04/12 07:29:09;;;;;;;10.10;9.20;;;17.30;59.30;;;;;;6128256;23;20803;-79
2022/04/12 07:31:36;;;;;;;12.60;11.40;;;16.90;60.00;;;;;;6128073;23;20784;-80
2022/04/12 07:34:03;;;;;;;10.97;9.30;;;16.70;60.20;;;;;;6127528;23;20407;-80
2022/04/12 07:36:30;;;;;;;10.50;9.33;;;16.50;60.60;;;;;;6128230;23;20435;-80
2022/04/12 07:38:57;;;;;;;11.93;10.03;;;16.60;60.70;;;;;;6128285;23;20423;-80
2022/04/12 07:41:23;;;;;;;12.13;9.77;;;16.80;61.10;;;;;;6134411;23;20427;-80
2022/04/12 07:43:52;;;;;;;12.50;10.07;;;16.90;60.80;;;;;;6130611;23;20439;-80
2022/04/12 07:46:19;;;;;;;13.13;10.53;;;17.00;60.90;;;;;;6126606;23;20435;-81
2022/04/12 07:48:46;;;;;;;10.33;9.40;;;17.10;60.30;;;;;;6128142;23;20478;-80
2022/04/12 07:51:12;;;;;;;10.83;9.70;;;17.00;61.00;;;;;;6129475;23;20408;-80
2022/04/12 07:53:39;;;;;;;12.20;9.07;;;17.00;60.00;;;;;;6129065;23;20470;-81
2022/04/12 07:56:06;;;;;;;9.47;8.50;;;17.60;59.60;;;;;;6133957;23;20405;-78
2022/04/12 07:58:33;;;;;;;13.60;9.80;;;18.30;58.80;;;;;;6136672;23;20435;-81
2022/04/12 08:01:01;;;;;;;11.10;9.80;;;18.60;57.90;;;;;;6131995;23;20412;-78
2022/04/12 08:03:27;;;;;;;13.70;10.10;;;18.60;57.30;;;;;;6129657;23;20414;-81
2022/04/12 08:05:54;;;;;;;10.37;9.33;;;18.70;57.30;;;;;;6128612;23;20404;-81
2022/04/12 08:08:21;;;;;;;11.20;10.20;;;18.90;57.20;;;;;;6133849;23;20808;-81
2022/04/12 08:10:48;;;;;;;11.17;9.40;;;18.90;56.20;;;;;;6129496;23;20410;-81
2022/04/12 08:13:14;;;;;;;10.40;9.40;;;19.20;56.10;;;;;;6127386;23;20978;-81
2022/04/12 08:15:41;;;;;;;10.10;9.07;;;19.50;55.90;;;;;;6127333;23;20413;-80
2022/04/12 08:18:09;;;;;;;11.20;9.40;;;19.60;54.60;;;;;;6126693;23;20468;-80
2022/04/12 08:20:36;;;;;;;11.17;8.53;;;19.90;54.10;;;;;;6127435;23;20435;-81
2022/04/12 08:23:03;;;;;;;11.37;10.37;;;19.60;54.60;;;;;;6132787;23;20411;-78
2022/04/12 08:25:30;;;;;;;10.43;9.40;;;19.50;54.40;;;;;;6140920;23;20433;-80
2022/04/12 08:27:57;;;;;;;9.93;9.03;;;19.40;54.10;;;;;;6138530;23;20578;-83
2022/04/12 08:30:23;;;;;;;10.33;8.83;;;19.40;54.30;;;;;;6139544;23;20915;-81
2022/04/12 08:32:51;;;;;;;10.83;9.73;;;19.40;54.20;;;;;;6137465;23;20907;-81
2022/04/12 08:35:19;;;;;;;9.37;8.30;;;19.60;54.50;;;;;;6141854;23;20409;-77
2022/04/12 08:37:46;;;;;;;9.80;8.83;;;20.10;53.90;;;;;;6135760;23;20454;-80
2022/04/12 08:40:14;;;;;;;9.57;8.30;;;20.00;53.00;;;;;;6137165;23;20413;-78
2022/04/12 08:42:41;;;;;;;12.77;7.73;;;20.30;52.60;;;;;;6135096;23;20445;-80
2022/04/12 08:45:09;;;;;;;8.67;7.77;;;20.70;51.40;;;;;;6135310;23;20474;-79
2022/04/12 08:47:36;;;;;;;8.80;8.00;;;21.60;51.10;;;;;;6139099;23;20461;-79
2022/04/12 08:50:03;;;;;;;8.73;7.93;;;22.60;50.50;;;;;;6135950;23;20418;-79
2022/04/12 08:52:33;;;;;;;8.97;8.07;;;22.80;47.90;;;;;;6129892;23;20409;-80
2022/04/12 08:55:01;;;;;;;11.10;8.60;;;23.10;46.90;;;;;;6132282;23;20416;-79
2022/04/12 08:57:28;;;;;;;9.37;7.20;;;23.50;46.60;;;;;;6140435;23;20442;-80
2022/04/12 08:59:55;;;;;;;8.40;6.60;;;23.90;45.40;;;;;;6137110;23;20486;-80
2022/04/12 09:02:21;;;;;;;7.90;7.30;;;24.10;45.60;;;;;;6128930;23;20910;-81
2022/04/12 09:04:48;;;;;;;10.50;7.30;;;24.60;44.90;;;;;;6133107;23;20395;-79
2022/04/12 09:07:16;;;;;;;8.13;7.23;;;24.70;43.70;;;;;;6145430;23;20416;-79
2022/04/12 09:09:44;;;;;;;13.60;7.80;;;25.20;44.20;;;;;;6139637;23;20415;-81
2022/04/12 09:12:12;;;;;;;8.60;7.20;;;24.80;44.20;;;;;;6132125;23;20418;-81
2022/04/12 09:14:41;;;;;;;10.33;7.10;;;24.80;43.50;;;;;;6137253;23;20394;-80
2022/04/12 09:17:09;;;;;;;7.73;7.03;;;24.30;43.90;;;;;;6152034;23;20444;-79
2022/04/12 09:19:42;;;;;;;7.47;6.20;;;23.50;43.90;;;;;;6152114;23;20425;-79
2022/04/12 09:22:13;;;;;;;6.87;6.17;;;23.30;44.40;;;;;;6151195;23;20442;-79
2022/04/12 09:24:46;;;;;;;6.23;5.63;;;23.70;43.30;;;;;;6143791;23;20417;-80
2022/04/12 09:27:14;;;;;;;5.63;5.00;;;23.80;42.50;;;;;;6146026;23;20399;-80
2022/04/12 09:29:45;;;;;;;6.87;6.00;;;24.10;41.80;;;;;;6132558;23;20897;-81
2022/04/12 09:32:14;;;;;;;7.20;5.80;;;24.70;42.10;;;;;;6130196;23;20396;-80
2022/04/12 09:34:42;;;;;;;8.67;6.03;;;25.40;41.20;;;;;;6141416;23;20412;-81
2022/04/12 09:37:25;;;;;;;8.60;6.10;;;26.60;40.00;;;;;;6132721;23;20506;-80
2022/04/12 09:40:05;;;;;;;7.03;6.20;;;27.10;38.70;;;;;;6133457;23;20396;-79
2022/04/12 09:42:48;;;;;;;8.03;5.37;;;27.40;37.70;;;;;;6132737;23;20391;-80
2022/04/12 09:45:17;;;;;;;6.67;5.30;;;27.70;38.10;;;;;;6131399;23;20394;-80
2022/04/12 09:47:45;;;;;;;8.80;6.60;;;27.40;37.50;;;;;;6130617;23;20442;-81
2022/04/12 09:50:12;;;;;;;8.30;6.10;;;28.20;37.90;;;;;;6130370;23;20414;-81
2022/04/12 09:52:39;;;;;;;6.00;5.10;;;28.80;36.20;;;;;;6132300;23;20459;-81
2022/04/12 09:55:09;;;;;;;5.70;5.30;;;29.00;35.90;;;;;;6136076;23;20410;-82
2022/04/12 09:57:40;;;;;;;5.47;4.50;;;30.20;35.20;;;;;;6129796;23;20451;-81
2022/04/12 10:00:09;;;;;;;5.83;4.67;;;29.70;33.70;;;;;;6130227;23;20459;-84
2022/04/12 10:02:36;;;;;;;5.70;4.83;;;30.10;33.50;;;;;;6126091;23;20401;-84
2022/04/12 10:05:05;;;;;;;5.77;5.27;;;29.80;33.20;;;;;;6150444;23;20417;-83
2022/04/12 10:07:33;;;;;;;5.47;4.77;;;29.20;33.00;;;;;;6144685;23;20433;-84
2022/04/12 10:10:03;;;;;;;7.20;5.63;;;28.30;34.30;;;;;;6126648;23;20408;-84
2022/04/12 10:12:32;;;;;;;6.00;4.30;;;27.60;35.00;;;;;;6099336;23;20393;-84
2022/04/12 10:14:59;;;;;;;7.43;4.90;;;27.60;35.10;;;;;;6098485;23;20426;-84
2022/04/12 10:17:26;;;;;;;5.23;4.73;;;27.30;35.70;;;;;;6099376;23;20445;-84
2022/04/12 10:19:53;;;;;;;6.60;4.30;;;27.40;35.50;;;;;;6099691;23;20411;-84
2022/04/12 10:22:20;;;;;;;7.80;4.47;;;27.50;35.40;;;;;;6098817;23;20443;-84
2022/04/12 10:24:47;;;;;;;5.00;4.33;;;28.00;34.20;;;;;;6104677;23;20427;-83
2022/04/12 10:27:14;;;;;;;6.43;4.40;;;28.90;34.40;;;;;;6124790;23;20455;-83
2022/04/12 10:30:25;;;;;;;6.27;3.80;;;28.80;33.60;;;;;;6121530;23;20463;-84
2022/04/12 10:33:00;;;;;;;3.90;3.50;;;29.60;32.50;;;;;;6108420;23;20392;-84
2022/04/12 10:35:27;;;;;;;6.23;4.00;;;29.60;31.80;;;;;;6118910;23;20423;-84
2022/04/12 10:37:56;;;;;;;4.20;3.90;;;29.00;31.90;;;;;;6110194;23;20777;-84
2022/04/12 10:40:24;;;;;;;4.27;3.70;;;29.70;33.00;;;;;;6101254;23;20443;-84
2022/04/12 10:42:51;;;;;;;6.07;4.13;;;30.00;31.90;;;;;;6116081;23;20408;-84
2022/04/12 10:45:30;;;;;;;5.00;4.40;;;30.80;31.10;;;;;;6116136;23;20399;-84
2022/04/12 10:47:58;;;;;;;5.07;4.07;;;31.20;31.00;;;;;;6112892;23;20471;-84
2022/04/12 10:50:25;;;;;;;6.43;4.17;;;30.90;30.20;;;;;;6113733;23;20968;-84
2022/04/12 10:52:52;;;;;;;4.20;3.80;;;30.30;31.10;;;;;;6113231;23;20415;-84
2022/04/12 10:55:22;;;;;;;4.37;3.63;;;28.90;32.10;;;;;;6115840;23;20412;-84
2022/04/12 10:57:49;;;;;;;5.27;4.77;;;29.50;33.40;;;;;;6120977;23;20377;-84
2022/04/12 11:00:17;;;;;;;6.30;4.20;;;30.80;32.20;;;;;;6100756;23;20925;-84
2022/04/12 11:02:47;;;;;;;5.00;4.37;;;31.50;31.80;;;;;;6098960;23;20389;-84
2022/04/12 11:06:05;;;;;;;6.30;4.03;;;32.20;31.30;;;;;;6099323;23;20440;-84
2022/04/12 11:08:48;;;;;;;6.90;4.47;;;32.40;30.30;;;;;;6099961;23;20428;-85
2022/04/12 11:11:19;;;;;;;7.30;4.80;;;32.50;30.70;;;;;;6098281;23;20432;-85
2022/04/12 11:13:46;;;;;;;4.90;4.40;;;33.00;29.80;;;;;;6098816;23;20784;-85
2022/04/12 11:16:13;;;;;;;4.43;3.67;;;33.40;29.30;;;;;;6099820;23;20479;-84
2022/04/12 11:18:48;;;;;;;10.20;4.03;;;34.00;28.50;;;;;;6097970;23;20404;-84
2022/04/12 11:21:16;;;;;;;4.90;4.40;;;33.50;28.80;;;;;;6097702;23;20968;-84
2022/04/12 11:23:48;;;;;;;5.77;4.60;;;33.00;28.60;;;;;;6098726;23;20400;-84
2022/04/12 11:26:38;;;;;;;4.83;3.73;;;32.50;28.90;;;;;;6098451;23;20408;-85
2022/04/12 11:29:10;;;;;;;6.77;3.43;;;30.90;29.30;;;;;;6108518;23;20424;-84
2022/04/12 11:31:43;;;;;;;4.03;3.30;;;30.10;30.10;;;;;;6122659;23;20439;-83
2022/04/12 11:34:11;;;;;;;4.00;3.60;;;30.00;30.50;;;;;;6124427;23;20379;-83
2022/04/12 11:36:39;;;;;;;7.50;3.60;;;30.10;30.80;;;;;;6115021;23;20409;-85
2022/04/12 11:39:06;;;;;;;5.20;3.77;;;31.00;30.40;;;;;;6099133;23;20408;-85
2022/04/12 11:41:33;;;;;;;5.80;3.60;;;31.40;29.90;;;;;;6098558;23;20435;-85
2022/04/12 11:44:01;;;;;;;5.87;2.77;;;31.70;29.50;;;;;;6099269;23;20409;-85
2022/04/12 11:46:30;;;;;;;3.77;2.60;;;31.90;29.60;;;;;;6098072;23;20415;-85
2022/04/12 11:49:05;;;;;;;6.07;3.20;;;31.50;29.30;;;;;;6097890;23;20846;-84
2022/04/12 11:51:37;;;;;;;2.70;2.50;;;30.90;29.60;;;;;;6114859;23;20428;-84
2022/04/12 11:54:20;;;;;;;4.63;3.33;;;29.60;31.10;;;;;;6122348;23;20397;-83
2022/04/12 11:56:47;;;;;;;4.63;2.30;;;29.80;32.00;;;;;;6099698;23;20420;-84
2022/04/12 11:59:13;;;;;;;3.63;2.63;;;30.00;31.00;;;;;;6098302;23;20408;-86
2022/04/12 12:01:40;;;;;;;4.70;2.20;;;29.50;32.00;;;;;;6096402;23;20455;-84
2022/04/12 12:04:07;;;;;;;4.10;2.23;;;29.60;31.90;;;;;;6097540;23;20859;-85
2022/04/12 12:06:53;;;;;;;4.73;3.23;;;29.90;31.70;;;;;;6097387;23;20412;-85
2022/04/12 12:09:20;;;;;;;3.53;2.60;;;29.60;31.40;;;;;;6098495;23;20428;-88
2022/04/12 12:11:48;;;;;;;4.20;2.30;;;29.10;32.70;;;;;;6099730;23;20435;-88
2022/04/12 12:14:14;;;;;;;3.97;2.40;;;29.10;33.20;;;;;;6115141;23;20419;-88
2022/04/12 12:16:42;;;;;;;3.33;2.17;;;28.70;32.00;;;;;;6120878;23;20404;-88
2022/04/12 12:19:14;;;;;;;2.63;1.97;;;27.90;32.80;;;;;;6120311;23;20405;-87
2022/04/12 12:21:44;;;;;;;3.90;2.00;;;27.40;34.10;;;;;;6108315;23;20438;-87
2022/04/12 12:24:11;;;;;;;3.53;2.30;;;27.80;34.20;;;;;;6103514;23;20422;-87
2022/04/12 12:26:37;;;;;;;7.20;2.80;;;28.00;34.20;;;;;;6105451;23;20405;-89
2022/04/12 12:29:10;;;;;;;2.83;1.83;;;27.80;33.70;;;;;;6108451;23;20443;-89
2022/04/12 12:31:44;;;;;;;3.40;1.93;;;27.80;34.40;;;;;;6110288;23;20484;-88
2022/04/12 12:34:26;;;;;;;4.07;2.13;;;28.00;34.50;;;;;;6118605;23;20887;-89
2022/04/12 12:36:54;;;;;;;2.50;1.97;;;28.30;34.40;;;;;;6106157;23;20396;-89
2022/04/12 12:39:21;;;;;;;2.60;1.87;;;28.30;33.80;;;;;;6104519;23;20408;-89
2022/04/12 12:41:48;;;;;;;3.10;2.27;;;28.00;33.50;;;;;;6099582;23;20437;-89
2022/04/12 12:44:17;;;;;;;3.43;2.10;;;27.90;34.30;;;;;;6099960;23;20419;-89
2022/04/12 12:46:45;;;;;;;3.27;2.97;;;27.30;33.90;;;;;;6099842;23;20415;-88
2022/04/12 12:49:15;;;;;;;2.83;2.37;;;27.50;34.00;;;;;;6099884;23;20542;-89
2022/04/12 12:51:42;;;;;;;4.03;2.33;;;27.70;35.10;;;;;;6101435;23;20474;-89